Tuesday, November 21, 2017, 10:51 AM EST
Back to Local

KBML, Berlin Municipal Airport

Location: Milan, NH, United States Lat: 44.583
Local Time: 10:51 AM EST (15:51 GMT) Lon: -71.183
Time Zone: US/Eastern Elev: 1158 ft

Show me the last for .
Show Decoded

2017-11-21 09:52 METAR KBML 211452Z AUTO 00000KT 10SM CLR M01/M06 A2994 RMK AO2 SLP156 T10061061
                 58013 =
2017-11-21 08:52 METAR KBML 211352Z AUTO 00000KT 10SM CLR M03/M07 A2997 RMK AO2 SLP166 T10281072
                 =
2017-11-21 07:52 METAR KBML 211252Z AUTO 00000KT 10SM CLR M06/M08 A2998 RMK AO2 SLP173 T10561078
                 =
2017-11-21 06:52 METAR KBML 211152Z AUTO 00000KT 10SM CLR M08/M09 A2998 RMK AO2 SLP173 7////
                 T10831094 11044 21089 53001 =
2017-11-21 05:52 METAR KBML 211052Z AUTO 00000KT 10SM OVC036 M05/M08 A2997 RMK AO2 SLP169
                 T10501078 =
2017-11-21 04:52 METAR KBML 210952Z AUTO 00000KT 10SM OVC033 M05/M08 A2997 RMK AO2 SLP168
                 T10501078 =
2017-11-21 04:05 METAR KBML 210905Z AUTO 00000KT 10SM FEW020 SCT029 OVC035 M05/M08 A2996 RMK AO2
                 T10501083 =
2017-11-21 03:52 METAR KBML 210852Z AUTO 00000KT 10SM BKN020 BKN028 OVC035 M05/M08 A2997 RMK AO2
                 SLP168 T10501083 50002 =
2017-11-21 02:52 METAR KBML 210752Z AUTO 00000KT 10SM OVC024 M06/M09 A2998 RMK AO2 SLP171
                 T10561094 =
2017-11-21 01:52 METAR KBML 210652Z AUTO 00000KT 10SM OVC024 M06/M09 A2998 RMK AO2 SLP173
                 T10611094 =
2017-11-21 00:52 METAR KBML 210552Z AUTO 19003KT 10SM OVC027 M07/M09 A2997 RMK AO2 SLP166
                 T10721094 11061 21100 53003 =
2017-11-21 00:22 METAR KBML 210522Z AUTO 00000KT 10SM OVC029 M08/M09 A2996 RMK AO2 T10781094 =
2017-11-20 23:52 METAR KBML 210452Z AUTO 00000KT 10SM BKN030 BKN043 M09/M11 A2996 RMK AO2 SLP165
                 T10941111 410221100 =
2017-11-20 22:52 METAR KBML 210352Z AUTO 00000KT 10SM SCT044 M08/M12 A2995 RMK AO2 SLP164
                 T10831117 =
2017-11-20 21:52 METAR KBML 210252Z AUTO 00000KT 10SM SCT045 M08/M11 A2996 RMK AO2 SLP165
                 T10781111 51017 =
2017-11-20 21:38 METAR KBML 210238Z AUTO VRB04KT 10SM SCT025 BKN045 M07/M11 A2996 RMK AO2
                 T10721111 =
2017-11-20 20:52 METAR KBML 210152Z AUTO 00000KT 10SM OVC027 M07/M11 A2994 RMK AO2 SLP160
                 T10671111 =
2017-11-20 20:36 METAR KBML 210136Z AUTO 00000KT 10SM BKN027 M07/M11 A2995 RMK AO2 T10671111 =
2017-11-20 19:52 METAR KBML 210052Z AUTO 00000KT 10SM FEW028 M07/M11 A2993 RMK AO2 SLP155
                 T10671111 =
2017-11-20 19:36 METAR KBML 210036Z AUTO VRB05KT 10SM SCT028 M07/M11 A2992 RMK AO2 T10671111 =
2017-11-20 19:28 METAR KBML 210028Z AUTO 10SM BKN028 M07/M11 A2992 RMK AO2 T10671111 =
2017-11-20 18:52 METAR KBML 202352Z AUTO VRB06KT 10SM SCT026 M06/M11 A2990 RMK AO2 SNE17 SLP145
                 P0000 60000 T10611111 11033 21061 53023 =
2017-11-20 17:52 METAR KBML 202252Z AUTO 29007KT 250V320 4SM -SN SCT021 BKN029 OVC035 M06/M09
                 A2986 RMK AO2 SLP131 P0000 T10561089 =
2017-11-20 17:41 METAR KBML 202241Z AUTO 32007KT 4SM -SN SCT021 BKN028 OVC037 M06/M09 A2986 RMK
                 AO2 P0000 T10561089 =
2017-11-20 17:20 METAR KBML 202220Z AUTO 31007KT 280V350 4SM -SN SCT024 BKN030 OVC040 M06/M09
                 A2984 RMK AO2 P0000 T10561089 =
2017-11-20 16:52 METAR KBML 202152Z AUTO 28007G18KT 210V340 3SM -SN OVC029 M05/M09 A2983 RMK AO2
                 SNB26 SLP121 P0000 T10501094 =
2017-11-20 15:52 METAR KBML 202052Z AUTO VRB04KT 10SM FEW026 OVC055 M05/M10 A2980 RMK AO2
                 SNE15B17E28 SLP111 P0000 60000 T10501100 53019 =
2017-11-20 15:16 METAR KBML 202016Z AUTO VRB06KT 7SM FEW020 BKN031 OVC048 M05/M09 A2979 RMK AO2
                 SNE15 P0000 T10501094 =
2017-11-20 15:03 METAR KBML 202003Z AUTO VRB04KT 3SM -SN BKN022 BKN028 OVC050 M05/M08 A2979 RMK
                 AO2 P0000 T10501083 =
2017-11-20 14:52 METAR KBML 201952Z AUTO VRB06KT 1 1/2SM -SN OVC022 M05/M08 A2978 RMK AO2 SNB1853
                 SLP103 P0000 T10501083 =
2017-11-20 14:33 METAR KBML 201933Z AUTO 29007G15KT 1SM -SN BKN022 BKN028 OVC036 M05/M09 A2978
                 RMK AO2 SNB1853 P0000 T10501089 =
2017-11-20 14:26 METAR KBML 201926Z AUTO 29009G15KT 270V330 1 1/2SM -SN BKN024 OVC036 M05/M09
                 A2978 RMK AO2 SNB1853 P0000 T10501094 =
2017-11-20 14:14 METAR KBML 201914Z AUTO VRB06G17KT 2SM -SN BKN032 OVC041 M05/M09 A2977 RMK AO2
                 SNB1853 P0000 T10501094 =
2017-11-20 13:52 METAR KBML 201852Z AUTO VRB06KT 8SM BKN032 OVC043 M04/M11 A2976 RMK AO2
                 SNB1753E05B41E52 SLP097 P0000 T10441106 =
2017-11-20 12:52 METAR KBML 201752Z AUTO 26008G15KT 9SM BKN041 OVC050 M03/M11 A2975 RMK AO2
                 SLP089 6//// T10331111 11033 21056 58001 =
2017-11-20 11:52 METAR KBML 201652Z AUTO 31009G16KT 280V340 10SM OVC040 M04/M12 A2975 RMK AO2
                 SLP092 T10441122 =
2017-11-20 10:52 METAR KBML 201552Z AUTO 32012G19KT 290V350 10SM OVC042 M04/M12 A2976 RMK AO2
                 UPB19E25SNE17 SLP096 P0000 T10441122 =

Support USWX by starting your Amazon purchase here.